createdAt,value
2022-08-03T00:01:29.138Z,99069.00
2022-08-03T00:03:56.041Z,99074.00
2022-08-03T00:06:22.953Z,99066.00
2022-08-03T00:08:49.996Z,99070.00
2022-08-03T00:11:17.030Z,99067.00
2022-08-03T00:13:44.029Z,99058.00
2022-08-03T00:16:11.813Z,99062.00
2022-08-03T00:18:39.218Z,99065.00
2022-08-03T00:21:06.397Z,99065.00
2022-08-03T00:23:51.750Z,99065.00
2022-08-03T00:26:20.755Z,99059.00
2022-08-03T00:28:48.263Z,99060.00
2022-08-03T00:31:15.370Z,99064.00
2022-08-03T00:33:59.264Z,99071.00
2022-08-03T00:36:29.406Z,99066.00
2022-08-03T00:38:56.792Z,99063.00
2022-08-03T00:41:23.754Z,99056.00
2022-08-03T00:43:51.156Z,99060.00
2022-08-03T00:46:21.669Z,99060.00
2022-08-03T00:48:53.211Z,99055.00
2022-08-03T00:51:22.209Z,99062.00
2022-08-03T00:53:50.241Z,99047.00
2022-08-03T00:56:18.275Z,99048.00
2022-08-03T00:58:47.002Z,99051.00
2022-08-03T01:01:15.052Z,99051.00
2022-08-03T01:03:42.733Z,99053.00
2022-08-03T01:06:12.867Z,99044.00
2022-08-03T01:08:54.489Z,99048.00
2022-08-03T01:11:59.956Z,99044.00
2022-08-03T01:14:48.881Z,99042.00
2022-08-03T01:17:29.027Z,99038.00
2022-08-03T01:20:13.657Z,99041.00
2022-08-03T01:23:07.150Z,99039.00
2022-08-03T01:25:59.758Z,99037.00
2022-08-03T01:28:41.230Z,99034.00
2022-08-03T01:31:11.597Z,99037.00
2022-08-03T01:33:49.949Z,99034.00
2022-08-03T01:36:23.403Z,99030.00
2022-08-03T01:38:57.729Z,99021.00
2022-08-03T01:41:35.245Z,99029.00
2022-08-03T01:44:29.602Z,99035.00
2022-08-03T01:47:01.183Z,99029.00
2022-08-03T01:49:31.917Z,99025.00
2022-08-03T01:52:04.848Z,99022.00
2022-08-03T01:54:48.453Z,99025.00
2022-08-03T01:57:17.625Z,99013.00
2022-08-03T01:59:46.791Z,99023.00
2022-08-03T02:02:32.738Z,99019.00
2022-08-03T02:05:03.125Z,99026.00
2022-08-03T02:07:32.566Z,99013.00
2022-08-03T02:10:01.567Z,99026.00
2022-08-03T02:12:31.360Z,99022.00
2022-08-03T02:15:01.933Z,99022.00
2022-08-03T02:17:39.248Z,99014.00
2022-08-03T02:20:09.825Z,99017.00
2022-08-03T02:22:41.531Z,99023.00
2022-08-03T02:25:14.017Z,99018.00
2022-08-03T02:27:52.517Z,99015.00
2022-08-03T02:30:21.434Z,99015.00
2022-08-03T02:32:57.924Z,99005.00
2022-08-03T02:35:28.312Z,99013.00
2022-08-03T02:38:02.496Z,99006.00
2022-08-03T02:40:31.765Z,99015.00
2022-08-03T02:43:05.215Z,99008.00
2022-08-03T02:45:36.574Z,99012.00
2022-08-03T02:48:06.757Z,99003.00
2022-08-03T02:50:35.189Z,98993.00
2022-08-03T02:53:04.351Z,98998.00
2022-08-03T02:55:35.295Z,99002.00
2022-08-03T02:58:04.243Z,98996.00
2022-08-03T03:00:35.161Z,99001.00
2022-08-03T03:03:04.399Z,99003.00
2022-08-03T03:05:54.865Z,99005.00
2022-08-03T03:08:25.808Z,99002.00
2022-08-03T03:10:56.034Z,99011.00
2022-08-03T03:13:24.625Z,99014.00
2022-08-03T03:15:54.441Z,99008.00
2022-08-03T03:18:22.997Z,99009.00
2022-08-03T03:20:53.373Z,99002.00
2022-08-03T03:23:24.799Z,99004.00
2022-08-03T03:25:53.455Z,99006.00
2022-08-03T03:28:20.841Z,99002.00
2022-08-03T03:30:53.192Z,99009.00
2022-08-03T03:33:24.008Z,98987.00
2022-08-03T03:35:54.611Z,99005.00
2022-08-03T03:38:21.545Z,99002.00
2022-08-03T03:40:49.354Z,99013.00
2022-08-03T03:43:18.507Z,98996.00
2022-08-03T03:45:47.035Z,99013.00
2022-08-03T03:48:14.672Z,99010.00
2022-08-03T03:50:41.532Z,99015.00
2022-08-03T03:53:14.184Z,99021.00
2022-08-03T03:55:59.179Z,99012.00
2022-08-03T03:58:31.700Z,99019.00
2022-08-03T04:00:59.107Z,99014.00
2022-08-03T04:03:26.074Z,99016.00
2022-08-03T04:06:11.374Z,99012.00
2022-08-03T04:08:56.917Z,99006.00
2022-08-03T04:11:39.486Z,98999.00
2022-08-03T04:14:38.924Z,99019.00
2022-08-03T04:17:09.930Z,99016.00
2022-08-03T04:19:51.257Z,99021.00
2022-08-03T04:22:27.692Z,99025.00
2022-08-03T04:25:03.911Z,99019.00
2022-08-03T04:27:38.088Z,99023.00
2022-08-03T04:30:07.326Z,99012.00
2022-08-03T04:32:36.812Z,99005.00
2022-08-03T04:35:04.823Z,99021.00
2022-08-03T04:37:48.035Z,99032.00
2022-08-03T04:40:34.199Z,99037.00
2022-08-03T04:43:03.229Z,99031.00
2022-08-03T04:45:32.438Z,99047.00
2022-08-03T04:48:00.128Z,99036.00
2022-08-03T04:50:30.699Z,99043.00
2022-08-03T04:52:57.544Z,99035.00
2022-08-03T04:55:33.622Z,99049.00
2022-08-03T04:58:02.646Z,99044.00
2022-08-03T05:00:30.036Z,99050.00
2022-08-03T05:02:57.111Z,99055.00
2022-08-03T05:05:24.503Z,99059.00
2022-08-03T05:07:51.392Z,99049.00
2022-08-03T05:10:20.124Z,99054.00
2022-08-03T05:12:49.171Z,99057.00
2022-08-03T05:15:16.177Z,99059.00
2022-08-03T05:17:43.680Z,99066.00
2022-08-03T05:20:11.963Z,99065.00
2022-08-03T05:22:38.865Z,99071.00
2022-08-03T05:25:06.216Z,99074.00
2022-08-03T05:27:33.112Z,99065.00
2022-08-03T05:30:29.818Z,99071.00
2022-08-03T05:32:46.944Z,99072.00
2022-08-03T05:35:57.956Z,99069.00
2022-08-03T05:38:02.851Z,99070.00
2022-08-03T05:40:30.812Z,99073.00
2022-08-03T05:42:58.550Z,99068.00
2022-08-03T05:45:28.390Z,99069.00
2022-08-03T05:47:55.927Z,99073.00
2022-08-03T05:50:23.422Z,99073.00
2022-08-03T05:52:50.401Z,99073.00
2022-08-03T05:55:17.743Z,99057.00
2022-08-03T05:57:47.718Z,99074.00
2022-08-03T06:00:17.102Z,99071.00
2022-08-03T06:02:44.540Z,99076.00
2022-08-03T06:05:11.447Z,99071.00
2022-08-03T06:07:38.602Z,99060.00
2022-08-03T06:10:34.943Z,99070.00
2022-08-03T06:12:53.680Z,99071.00
2022-08-03T06:15:21.193Z,99072.00
2022-08-03T06:17:49.434Z,99070.00
2022-08-03T06:20:19.768Z,99078.00
2022-08-03T06:22:50.761Z,99081.00
2022-08-03T06:25:21.333Z,99077.00
2022-08-03T06:27:48.516Z,99082.00
2022-08-03T06:30:21.097Z,99066.00
2022-08-03T06:32:51.840Z,99080.00
2022-08-03T06:35:20.053Z,99093.00
2022-08-03T06:37:49.808Z,99083.00
2022-08-03T06:40:31.397Z,99093.00
2022-08-03T06:43:00.084Z,99090.00
2022-08-03T06:45:31.826Z,99095.00
2022-08-03T06:48:12.795Z,99094.00
2022-08-03T06:50:41.958Z,99091.00
2022-08-03T06:53:10.299Z,99087.00
2022-08-03T06:55:49.019Z,99082.00
2022-08-03T06:58:19.381Z,99087.00
2022-08-03T07:00:46.224Z,99083.00
2022-08-03T07:03:13.065Z,99095.00
2022-08-03T07:05:39.963Z,99077.00
2022-08-03T07:08:07.816Z,99074.00
2022-08-03T07:10:34.680Z,99086.00
2022-08-03T07:13:01.518Z,99088.00
2022-08-03T07:15:54.327Z,99077.00
2022-08-03T07:18:15.407Z,99085.00
2022-08-03T07:20:42.407Z,99093.00
2022-08-03T07:23:09.892Z,99091.00
2022-08-03T07:25:38.807Z,99094.00
2022-08-03T07:28:05.734Z,99086.00
2022-08-03T07:30:32.661Z,99076.00
2022-08-03T07:32:59.506Z,99083.00
2022-08-03T07:35:26.409Z,99085.00
2022-08-03T07:37:54.894Z,99080.00
2022-08-03T07:40:22.843Z,99084.00
2022-08-03T07:42:53.373Z,99078.00
2022-08-03T07:45:23.320Z,99072.00
2022-08-03T07:47:53.723Z,99082.00
2022-08-03T07:50:22.359Z,99082.00
2022-08-03T07:52:51.579Z,99077.00
2022-08-03T07:55:21.675Z,99081.00
2022-08-03T07:58:06.426Z,99078.00
2022-08-03T08:00:34.208Z,99075.00
2022-08-03T08:03:01.314Z,99075.00
2022-08-03T08:05:29.432Z,99072.00
2022-08-03T08:07:56.462Z,99067.00
2022-08-03T08:10:23.754Z,99072.00
2022-08-03T08:12:50.673Z,99070.00
2022-08-03T08:15:17.583Z,99080.00
2022-08-03T08:17:51.825Z,99075.00
2022-08-03T08:20:32.136Z,99068.00
2022-08-03T08:23:24.189Z,99075.00
2022-08-03T08:25:56.430Z,99078.00
2022-08-03T08:28:32.384Z,99077.00
2022-08-03T08:31:01.715Z,99088.00
2022-08-03T08:33:42.033Z,99074.00
2022-08-03T08:36:15.684Z,99080.00
2022-08-03T08:38:44.835Z,99075.00
2022-08-03T08:41:14.139Z,99085.00
2022-08-03T08:43:42.018Z,99084.00
2022-08-03T08:46:23.615Z,99080.00
2022-08-03T08:48:53.145Z,99084.00
2022-08-03T08:51:22.671Z,99079.00
2022-08-03T08:53:54.642Z,99076.00
2022-08-03T08:56:26.018Z,99075.00
2022-08-03T08:58:58.338Z,99084.00
2022-08-03T09:01:25.888Z,99077.00
2022-08-03T09:03:54.283Z,99073.00
2022-08-03T09:06:23.075Z,99082.00
2022-08-03T09:08:50.066Z,99076.00
2022-08-03T09:11:21.184Z,99077.00
2022-08-03T09:14:09.561Z,99068.00
2022-08-03T09:16:36.622Z,99063.00
2022-08-03T09:19:14.758Z,99078.00
2022-08-03T09:21:41.725Z,99074.00
2022-08-03T09:24:20.601Z,99079.00
2022-08-03T09:26:55.646Z,99075.00
2022-08-03T09:29:22.851Z,99077.00
2022-08-03T09:31:49.709Z,99077.00
2022-08-03T09:34:18.210Z,99070.00
2022-08-03T09:36:50.764Z,99077.00
2022-08-03T09:39:40.602Z,99070.00
2022-08-03T09:42:15.460Z,99068.00
2022-08-03T09:44:45.925Z,99070.00
2022-08-03T09:47:16.210Z,99069.00
2022-08-03T09:50:04.586Z,99063.00
2022-08-03T09:52:51.950Z,99062.00
2022-08-03T09:56:35.491Z,99073.00
2022-08-03T09:58:12.703Z,99066.00
2022-08-03T10:01:06.257Z,99069.00
2022-08-03T10:04:03.263Z,99060.00
2022-08-03T10:06:25.137Z,99065.00
2022-08-03T10:09:16.773Z,99072.00
2022-08-03T10:11:46.940Z,99052.00
2022-08-03T10:14:20.063Z,99059.00
2022-08-03T10:16:49.007Z,99053.00
2022-08-03T10:19:17.364Z,99053.00
2022-08-03T10:22:12.504Z,99053.00
2022-08-03T10:25:33.249Z,99055.00
2022-08-03T10:28:07.075Z,99040.00
2022-08-03T10:30:37.386Z,99052.00
2022-08-03T10:33:51.219Z,99053.00
2022-08-03T10:36:07.288Z,99041.00
2022-08-03T10:38:43.257Z,99044.00
2022-08-03T10:41:11.484Z,99048.00
2022-08-03T10:43:50.539Z,99038.00
2022-08-03T10:46:21.493Z,99034.00
2022-08-03T10:48:52.437Z,99022.00
2022-08-03T10:51:20.974Z,99032.00
2022-08-03T10:53:54.951Z,99022.00
2022-08-03T10:56:52.740Z,99025.00
2022-08-03T10:59:46.158Z,99030.00
2022-08-03T11:02:21.372Z,99022.00
2022-08-03T11:05:32.512Z,99027.00
2022-08-03T11:08:34.885Z,99018.00
2022-08-03T11:11:18.007Z,99024.00
2022-08-03T11:14:18.617Z,99022.00
2022-08-03T11:16:49.792Z,99027.00
2022-08-03T11:19:24.112Z,99013.00
2022-08-03T11:21:56.975Z,99016.00
2022-08-03T11:24:42.489Z,99013.00
2022-08-03T11:27:18.639Z,99013.00
2022-08-03T11:30:18.013Z,99006.00
2022-08-03T11:32:48.241Z,99003.00
2022-08-03T11:35:24.098Z,99001.00
2022-08-03T11:38:03.136Z,98997.00
2022-08-03T11:40:47.959Z,98995.00
2022-08-03T11:43:35.208Z,99003.00
2022-08-03T11:46:28.441Z,98999.00
2022-08-03T11:49:10.337Z,99006.00
2022-08-03T11:51:38.744Z,99001.00
2022-08-03T11:54:08.102Z,99005.00
2022-08-03T11:56:49.690Z,98998.00
2022-08-03T11:59:22.196Z,98995.00
2022-08-03T12:01:50.238Z,98996.00
2022-08-03T12:04:17.159Z,98994.00
2022-08-03T12:07:00.405Z,98991.00
2022-08-03T12:09:27.385Z,98987.00
2022-08-03T12:12:00.157Z,98987.00
2022-08-03T12:14:49.087Z,98987.00
2022-08-03T12:17:17.718Z,98986.00
2022-08-03T12:19:45.384Z,98974.00
2022-08-03T12:22:12.433Z,98981.00
2022-08-03T12:24:44.224Z,98978.00
2022-08-03T12:27:23.150Z,98973.00
2022-08-03T12:29:58.371Z,98972.00
2022-08-03T12:32:27.729Z,98965.00
2022-08-03T12:35:00.116Z,98972.00
2022-08-03T12:37:27.643Z,98968.00
2022-08-03T12:40:04.974Z,98960.00
2022-08-03T12:42:40.419Z,98961.00
2022-08-03T12:45:30.397Z,98959.00
2022-08-03T12:48:01.519Z,98957.00
2022-08-03T12:50:36.259Z,98952.00
2022-08-03T12:53:08.006Z,98954.00
2022-08-03T12:56:05.133Z,98945.00
2022-08-03T12:58:34.535Z,98949.00
2022-08-03T13:01:05.152Z,98948.00
2022-08-03T13:03:43.389Z,98956.00
2022-08-03T13:06:25.269Z,98960.00
2022-08-03T13:09:07.346Z,98964.00
2022-08-03T13:12:00.897Z,98948.00
2022-08-03T13:14:23.714Z,98953.00
2022-08-03T13:16:51.141Z,98953.00
2022-08-03T13:19:18.125Z,98949.00
2022-08-03T13:21:53.690Z,98945.00
2022-08-03T13:24:31.587Z,98948.00
2022-08-03T13:26:59.786Z,98941.00
2022-08-03T13:29:26.661Z,98942.00
2022-08-03T13:31:53.971Z,98948.00
2022-08-03T13:34:23.538Z,98942.00
2022-08-03T13:37:08.382Z,98950.00
2022-08-03T13:39:57.681Z,98945.00
2022-08-03T13:42:22.613Z,98938.00
2022-08-03T13:44:49.733Z,98936.00
2022-08-03T13:47:17.163Z,98928.00
2022-08-03T13:49:54.001Z,98928.00
2022-08-03T13:52:26.521Z,98933.00
2022-08-03T13:54:53.407Z,98931.00
2022-08-03T13:58:05.034Z,98932.00
2022-08-03T14:00:08.284Z,98929.00
2022-08-03T14:02:35.243Z,98925.00
2022-08-03T14:05:02.155Z,98923.00
2022-08-03T14:07:28.978Z,98918.00
2022-08-03T14:09:56.855Z,98917.00
2022-08-03T14:12:23.713Z,98908.00
2022-08-03T14:14:50.560Z,98909.00
2022-08-03T14:17:17.576Z,98917.00
2022-08-03T14:19:53.218Z,98908.00
2022-08-03T14:22:21.520Z,98914.00
2022-08-03T14:24:49.199Z,98903.00
2022-08-03T14:27:17.166Z,98902.00
2022-08-03T14:29:44.104Z,98904.00
2022-08-03T14:32:13.522Z,98901.00
2022-08-03T14:34:41.088Z,98901.00
2022-08-03T14:37:08.208Z,98911.00
2022-08-03T14:42:21.979Z,98905.00
2022-08-03T14:44:48.966Z,98896.00
2022-08-03T14:47:15.873Z,98906.00
2022-08-03T14:50:31.052Z,98898.00
2022-08-03T14:52:31.340Z,98885.00
2022-08-03T14:54:59.091Z,98888.00
2022-08-03T14:57:27.204Z,98890.00
2022-08-03T14:59:56.423Z,98884.00
2022-08-03T15:02:25.425Z,98876.00
2022-08-03T15:04:52.750Z,98872.00
2022-08-03T15:07:20.858Z,98872.00
2022-08-03T15:09:48.204Z,98856.00
2022-08-03T15:12:15.186Z,98858.00
2022-08-03T15:14:42.051Z,98852.00
2022-08-03T15:17:09.440Z,98849.00
2022-08-03T15:20:03.516Z,98855.00
2022-08-03T15:22:24.994Z,98851.00
2022-08-03T15:26:03.273Z,98835.00
2022-08-03T15:28:03.983Z,98842.00
2022-08-03T15:30:35.916Z,98835.00
2022-08-03T15:33:03.723Z,98837.00
2022-08-03T15:35:30.664Z,98833.00
2022-08-03T15:37:57.524Z,98826.00
2022-08-03T15:40:24.395Z,98820.00
2022-08-03T15:42:51.256Z,98818.00
2022-08-03T15:45:20.477Z,98824.00
2022-08-03T15:47:47.649Z,98825.00
2022-08-03T15:50:14.505Z,98812.00
2022-08-03T15:52:41.397Z,98811.00
2022-08-03T15:55:09.205Z,98816.00
2022-08-03T15:59:09.527Z,98812.00
2022-08-03T16:00:33.318Z,98812.00
2022-08-03T16:03:01.413Z,98817.00
2022-08-03T16:05:28.738Z,98815.00
2022-08-03T16:08:02.655Z,98811.00
2022-08-03T16:10:32.190Z,98803.00
2022-08-03T16:13:00.240Z,98800.00
2022-08-03T16:15:27.543Z,98803.00
2022-08-03T16:17:54.570Z,98810.00
2022-08-03T16:20:29.023Z,98802.00
2022-08-03T16:23:11.300Z,98799.00
2022-08-03T16:25:44.417Z,98802.00
2022-08-03T16:28:17.682Z,98798.00
2022-08-03T16:30:46.326Z,98799.00
2022-08-03T16:33:17.205Z,98804.00
2022-08-03T16:35:46.502Z,98784.00
2022-08-03T16:38:18.535Z,98798.00
2022-08-03T16:40:51.533Z,98799.00
2022-08-03T16:43:20.314Z,98793.00
2022-08-03T16:45:47.807Z,98781.00
2022-08-03T16:48:15.775Z,98788.00
2022-08-03T16:50:44.231Z,98788.00
2022-08-03T16:53:16.809Z,98794.00
2022-08-03T16:56:00.055Z,98783.00
2022-08-03T16:58:34.368Z,98781.00
2022-08-03T17:01:21.862Z,98778.00
2022-08-03T17:04:01.438Z,98794.00
2022-08-03T17:06:35.583Z,98786.00
2022-08-03T17:09:14.608Z,98782.00
2022-08-03T17:11:48.464Z,98779.00
2022-08-03T17:14:21.853Z,98792.00
2022-08-03T17:16:52.678Z,98783.00
2022-08-03T17:19:23.978Z,98786.00
2022-08-03T17:22:10.638Z,98783.00
2022-08-03T17:24:44.236Z,98787.00
2022-08-03T17:28:48.300Z,98770.00
2022-08-03T17:30:15.792Z,98780.00
2022-08-03T17:32:52.636Z,98784.00
2022-08-03T17:35:34.339Z,98778.00
2022-08-03T17:38:11.863Z,98779.00
2022-08-03T17:40:50.255Z,98785.00
2022-08-03T17:44:13.908Z,98782.00
2022-08-03T17:46:10.871Z,98784.00
2022-08-03T17:48:41.342Z,98778.00
2022-08-03T17:51:26.499Z,98785.00
2022-08-03T17:54:24.974Z,98788.00
2022-08-03T17:58:01.313Z,98791.00
2022-08-03T18:00:42.650Z,98787.00
2022-08-03T18:03:57.044Z,98792.00
2022-08-03T18:06:31.622Z,98794.00
2022-08-03T18:09:05.106Z,98795.00
2022-08-03T18:11:58.078Z,98792.00
2022-08-03T18:14:37.865Z,98784.00
2022-08-03T18:17:15.671Z,98799.00
2022-08-03T18:20:02.525Z,98792.00
2022-08-03T18:22:34.401Z,98795.00
2022-08-03T18:25:07.619Z,98783.00
2022-08-03T18:27:45.886Z,98799.00
2022-08-03T18:30:15.454Z,98788.00
2022-08-03T18:33:00.764Z,98797.00
2022-08-03T18:35:53.113Z,98793.00
2022-08-03T18:38:22.185Z,98795.00
2022-08-03T18:40:51.390Z,98794.00
2022-08-03T18:43:20.796Z,98792.00
2022-08-03T18:45:56.173Z,98794.00
2022-08-03T18:49:29.121Z,98791.00
2022-08-03T18:52:45.863Z,98798.00
2022-08-03T18:55:33.067Z,98796.00
2022-08-03T18:58:17.607Z,98804.00
2022-08-03T19:01:57.246Z,98800.00
2022-08-03T19:04:33.376Z,98796.00
2022-08-03T19:10:05.602Z,98808.00
2022-08-03T19:12:50.538Z,98803.00
2022-08-03T19:15:41.272Z,98803.00
2022-08-03T19:18:11.204Z,98792.00
2022-08-03T19:20:38.379Z,98809.00
2022-08-03T19:23:07.436Z,98811.00
2022-08-03T19:25:41.826Z,98812.00
2022-08-03T19:28:09.403Z,98820.00
2022-08-03T19:30:46.400Z,98811.00
2022-08-03T19:33:22.676Z,98820.00
2022-08-03T19:35:55.672Z,98821.00
2022-08-03T19:38:28.486Z,98828.00
2022-08-03T19:41:03.515Z,98817.00
2022-08-03T19:43:57.777Z,98824.00
2022-08-03T19:46:31.758Z,98822.00
2022-08-03T19:49:15.435Z,98817.00
2022-08-03T19:52:01.797Z,98826.00
2022-08-03T19:54:53.305Z,98812.00
2022-08-03T19:57:24.939Z,98826.00
2022-08-03T19:59:54.903Z,98820.00
2022-08-03T20:02:26.375Z,98817.00
2022-08-03T20:04:59.754Z,98821.00
2022-08-03T20:07:32.785Z,98815.00
2022-08-03T20:10:04.242Z,98803.00
2022-08-03T20:12:38.758Z,98826.00
2022-08-03T20:15:07.090Z,98817.00
2022-08-03T20:17:56.201Z,98813.00
2022-08-03T20:20:31.998Z,98811.00
2022-08-03T20:23:06.872Z,98801.00
2022-08-03T20:25:48.796Z,98799.00
2022-08-03T20:28:50.644Z,98812.00
2022-08-03T20:31:22.753Z,98801.00
2022-08-03T20:33:53.498Z,98808.00
2022-08-03T20:36:20.558Z,98805.00
2022-08-03T20:38:48.518Z,98816.00
2022-08-03T20:41:16.989Z,98810.00
2022-08-03T20:43:44.734Z,98810.00
2022-08-03T20:46:38.271Z,98808.00
2022-08-03T20:49:03.937Z,98802.00
2022-08-03T20:51:49.727Z,98800.00
2022-08-03T20:54:28.848Z,98801.00
2022-08-03T20:57:00.151Z,98786.00
2022-08-03T20:59:36.892Z,98782.00
2022-08-03T21:02:19.585Z,98783.00
2022-08-03T21:05:03.612Z,98784.00
2022-08-03T21:08:06.437Z,98780.00
2022-08-03T21:10:39.691Z,98781.00
2022-08-03T21:13:09.087Z,98807.00
2022-08-03T21:13:23.432Z,98773.00
2022-08-03T21:16:03.261Z,98785.00
2022-08-03T21:18:46.328Z,98782.00
2022-08-03T21:21:17.544Z,98783.00
2022-08-03T21:23:50.132Z,98783.00
2022-08-03T21:26:23.034Z,98774.00
2022-08-03T21:28:52.475Z,98771.00
2022-08-03T21:31:25.080Z,98778.00
2022-08-03T21:33:56.656Z,98777.00
2022-08-03T21:36:27.126Z,98766.00
2022-08-03T21:38:57.244Z,98773.00
2022-08-03T21:41:31.580Z,98769.00
2022-08-03T21:44:00.197Z,98774.00
2022-08-03T21:46:33.028Z,98777.00
2022-08-03T21:50:05.364Z,98772.00
2022-08-03T21:52:01.254Z,98763.00
2022-08-03T21:54:36.542Z,98768.00
2022-08-03T21:57:17.386Z,98770.00
2022-08-03T21:59:55.190Z,98776.00
2022-08-03T22:02:27.943Z,98781.00
2022-08-03T22:04:58.319Z,98777.00
2022-08-03T22:07:27.792Z,98768.00
2022-08-03T22:09:56.126Z,98779.00
2022-08-03T22:12:25.896Z,98775.00
2022-08-03T22:15:00.884Z,98781.00
2022-08-03T22:17:55.173Z,98779.00
2022-08-03T22:20:21.424Z,98770.00
2022-08-03T22:22:56.018Z,98764.00
2022-08-03T22:25:29.069Z,98777.00
2022-08-03T22:28:02.932Z,98778.00
2022-08-03T22:30:31.544Z,98772.00
2022-08-03T22:32:59.960Z,98775.00
2022-08-03T22:35:28.072Z,98778.00
2022-08-03T22:37:57.980Z,98770.00
2022-08-03T22:40:26.533Z,98781.00
2022-08-03T22:42:54.761Z,98782.00
2022-08-03T22:45:45.545Z,98786.00
2022-08-03T22:48:08.716Z,98787.00
2022-08-03T22:50:35.729Z,98798.00
2022-08-03T22:53:03.443Z,98781.00
2022-08-03T22:55:31.023Z,98788.00
2022-08-03T22:57:57.853Z,98788.00
2022-08-03T23:00:25.486Z,98787.00
2022-08-03T23:02:56.548Z,98793.00
2022-08-03T23:06:02.143Z,98802.00
2022-08-03T23:08:17.790Z,98802.00
2022-08-03T23:10:47.508Z,98794.00
2022-08-03T23:13:18.930Z,98802.00
2022-08-03T23:16:00.308Z,98798.00
2022-08-03T23:18:34.094Z,98801.00
2022-08-03T23:21:11.179Z,98799.00
2022-08-03T23:23:44.357Z,98792.00
2022-08-03T23:26:13.598Z,98794.00
2022-08-03T23:28:46.984Z,98787.00
2022-08-03T23:31:15.525Z,98800.00
2022-08-03T23:33:45.582Z,98800.00
2022-08-03T23:36:31.098Z,98796.00
2022-08-03T23:39:02.403Z,98792.00
2022-08-03T23:41:31.986Z,98797.00
2022-08-03T23:44:03.827Z,98788.00
2022-08-03T23:46:32.479Z,98785.00
2022-08-03T23:49:00.446Z,98784.00
2022-08-03T23:52:03.220Z,98788.00
2022-08-03T23:54:32.720Z,98788.00
2022-08-03T23:57:28.110Z,98782.00
